Time;durP1;ratioP1;P1;durP2;ratioP2;P2;SDS_P1;SDS_P2;PMS_P1;PMS_P2;Temp;Humidity;BMP_temperature;BMP_pressure;BME280_temperature;BME280_humidity;BME280_pressure;Samples;Min_cycle;Max_cycle;Signal;HPM_P1;HPM_P2
2022/05/16 13:39:33;;;;;;;;;;;;;;;27.31;33.91;95340.28;4948933;28;1424493;-49
2022/05/16 13:42:00;;;;;;;;;;;;;;;27.30;33.80;95344.13;5076288;28;1969;-49
2022/05/16 13:44:33;;;;;;;;;;;;;;;27.16;33.34;95343.69;5076135;28;1116;-49
2022/05/16 13:47:01;;;;;;;;;;;;;;;26.96;33.38;95343.50;5076528;28;1039;-49
2022/05/16 13:49:27;;;;;;;;;;;;;;;26.85;32.98;95339.84;5076196;28;1011;-49
2022/05/16 13:51:53;;;;;;;;;;;;;;;26.91;34.23;95347.03;5076455;28;966;-49
2022/05/16 13:54:22;;;;;;;;;;;;;;;27.05;34.94;95344.69;5075628;28;1087;-49
2022/05/16 13:56:52;;;;;;;;;;;;;;;27.00;32.82;95340.00;5076214;28;1008;-49
2022/05/16 13:59:23;;;;;;;;;;;;;;;26.97;33.17;95329.53;5076122;28;1028;-49
2022/05/16 14:02:01;;;;;;;;;;;;;;;26.84;33.65;95336.28;5075885;28;1991;-49
2022/05/16 14:04:29;;;;;;;;;;;;;;;26.81;33.19;95328.56;5077713;28;1162;-49
2022/05/16 14:07:10;;;;;;;;;;;;;;;26.86;32.80;95330.50;5096138;28;1028;-49
2022/05/16 14:09:42;;;;;;;;;;;;;;;26.90;33.21;95326.19;5095955;28;967;-49
2022/05/16 14:12:12;;;;;;;;;;;;;;;26.90;32.37;95315.22;5096113;28;970;-49
2022/05/16 14:14:38;;;;;;;;;;;;;;;26.79;32.08;95318.94;5095702;28;1044;-49
2022/05/16 14:17:04;;;;;;;;;;;;;;;26.53;31.88;95313.16;5096280;28;1033;-49
2022/05/16 14:19:33;;;;;;;;;;;;;;;26.63;33.57;95309.72;5095878;28;1029;-50
2022/05/16 14:22:03;;;;;;;;;;;;;;;26.74;33.10;95318.88;5095683;28;1988;-49
2022/05/16 14:24:49;;;;;;;;;;;;;;;26.81;33.14;95316.78;5095756;28;964;-50
2022/05/16 14:27:34;;;;;;;;;;;;;;;26.84;33.74;95321.72;5095991;28;972;-50
2022/05/16 14:30:08;;;;;;;;;;;;;;;26.83;33.51;95309.09;5095755;28;1037;-49
2022/05/16 14:32:36;;;;;;;;;;;;;;;26.79;32.43;95313.47;5095721;28;974;-50
2022/05/16 14:35:08;;;;;;;;;;;;;;;26.84;32.81;95316.22;5095500;28;994;-50
2022/05/16 14:37:36;;;;;;;;;;;;;;;26.84;32.22;95310.75;5098846;28;1957;-50
2022/05/16 14:40:02;;;;;;;;;;;;;;;26.78;32.75;95320.03;5115880;28;930;-50
2022/05/16 14:42:30;;;;;;;;;;;;;;;26.78;31.72;95311.78;5115298;28;1902;-49
2022/05/16 14:45:11;;;;;;;;;;;;;;;26.85;32.53;95317.91;5115992;28;949;-48
2022/05/16 14:47:43;;;;;;;;;;;;;;;26.86;32.38;95312.16;5114786;28;964;-48
2022/05/16 14:50:12;;;;;;;;;;;;;;;26.83;32.61;95314.59;5115635;28;1036;-48
2022/05/16 14:52:40;;;;;;;;;;;;;;;26.87;32.00;95310.25;5115865;28;1040;-48
2022/05/16 14:55:11;;;;;;;;;;;;;;;26.92;33.65;95304.81;5115494;28;1011;-48
2022/05/16 14:57:39;;;;;;;;;;;;;;;27.02;33.33;95313.13;5115519;28;1078;-48
2022/05/16 15:00:07;;;;;;;;;;;;;;;27.13;32.91;95318.69;5115504;28;988;-48
2022/05/16 15:05:18;;;;;;;;;;;;;;;27.23;32.73;95313.28;5106365;28;1193;-48
2022/05/16 15:07:44;;;;;;;;;;;;;;;27.17;31.82;95303.38;5095113;28;1028;-48
2022/05/16 15:10:11;;;;;;;;;;;;;;;27.02;30.66;95307.63;5094856;28;1199;-48
2022/05/16 15:12:37;;;;;;;;;;;;;;;26.97;32.10;95301.28;5094897;28;1040;-48
2022/05/16 15:15:04;;;;;;;;;;;;;;;26.81;32.53;95303.06;5094597;28;1043;-48
2022/05/16 15:17:30;;;;;;;;;;;;;;;26.54;33.22;95301.13;5094972;28;1075;-48
2022/05/16 15:19:56;;;;;;;;;;;;;;;26.35;33.53;95302.53;5094603;28;1016;-48
2022/05/16 15:22:22;;;;;;;;;;;;;;;26.13;34.58;95308.88;5094739;28;1909;-48
2022/05/16 15:24:55;;;;;;;;;;;;;;;25.98;34.40;95308.66;5094566;28;1036;-48
2022/05/16 15:27:23;;;;;;;;;;;;;;;25.85;35.40;95301.63;5094556;28;1024;-48
2022/05/16 15:29:50;;;;;;;;;;;;;;;25.69;34.83;95298.69;5094540;28;1141;-48
2022/05/16 15:32:16;;;;;;;;;;;;;;;25.52;35.03;95306.91;5093304;28;972;-48
2022/05/16 15:34:42;;;;;;;;;;;;;;;25.44;35.52;95301.03;5094408;28;1032;-48
2022/05/16 15:37:11;;;;;;;;;;;;;;;25.44;35.20;95298.31;5094413;28;1033;-50
2022/05/16 15:39:37;;;;;;;;;;;;;;;25.41;35.70;95299.63;5094618;28;1043;-49
2022/05/16 15:42:05;;;;;;;;;;;;;;;25.39;36.32;95298.25;5094057;28;1906;-48
2022/05/16 15:44:32;;;;;;;;;;;;;;;25.21;38.96;95302.88;5094464;28;963;-48
2022/05/16 15:46:59;;;;;;;;;;;;;;;25.03;41.21;95297.66;5094269;28;1169;-49
2022/05/16 15:49:26;;;;;;;;;;;;;;;24.91;41.70;95301.28;5094493;28;968;-49
2022/05/16 15:51:52;;;;;;;;;;;;;;;24.93;41.63;95285.47;5094044;28;1055;-49
2022/05/16 15:54:19;;;;;;;;;;;;;;;24.77;43.59;95290.91;5092888;28;1033;-49
2022/05/16 15:56:45;;;;;;;;;;;;;;;24.72;44.69;95297.97;5094061;28;967;-49
2022/05/16 15:59:11;;;;;;;;;;;;;;;24.58;45.29;95284.84;5094090;28;976;-49
2022/05/16 16:01:39;;;;;;;;;;;;;;;24.58;45.13;95293.03;5093967;28;1898;-49
2022/05/16 16:09:40;;;;;;;;;;;;;;;24.28;48.89;95291.34;5093723;28;1024;-48
2022/05/16 16:12:07;;;;;;;;;;;;;;;23.97;48.92;95296.22;5093703;28;1063;-49
2022/05/16 16:14:33;;;;;;;;;;;;;;;23.88;48.10;95294.94;5094013;28;1059;-49
2022/05/16 16:17:00;;;;;;;;;;;;;;;23.89;47.96;95300.16;5093883;28;1062;-49
2022/05/16 16:19:27;;;;;;;;;;;;;;;23.81;48.54;95296.94;5093682;28;932;-49
2022/05/16 16:21:55;;;;;;;;;;;;;;;23.78;48.97;95298.25;5093294;28;1946;-50
2022/05/16 16:24:22;;;;;;;;;;;;;;;23.68;48.61;95298.84;5093746;28;1073;-49
2022/05/16 16:26:49;;;;;;;;;;;;;;;23.67;49.40;95301.81;5093699;28;964;-49
2022/05/16 16:29:15;;;;;;;;;;;;;;;23.66;48.75;95301.00;5093697;28;957;-49
2022/05/16 16:31:42;;;;;;;;;;;;;;;23.71;48.82;95300.25;5093239;28;1047;-49
2022/05/16 16:34:09;;;;;;;;;;;;;;;23.74;48.65;95308.00;5093562;28;1039;-49
2022/05/16 16:36:36;;;;;;;;;;;;;;;23.74;49.07;95306.06;5093015;28;1018;-49
2022/05/16 16:39:04;;;;;;;;;;;;;;;23.80;49.37;95307.06;5093237;28;1319;-49
2022/05/16 16:41:32;;;;;;;;;;;;;;;23.76;48.32;95317.59;5093220;28;1909;-49
2022/05/16 16:43:58;;;;;;;;;;;;;;;23.56;48.38;95307.06;5093428;28;1008;-49
2022/05/16 16:46:26;;;;;;;;;;;;;;;23.39;48.23;95309.69;5093191;28;1064;-49
2022/05/16 16:48:53;;;;;;;;;;;;;;;23.30;48.90;95308.38;5093292;28;1111;-48
2022/05/16 16:59:44;;;;;;;;;;;;;;;22.79;48.50;95316.09;5093122;28;1873;-49
2022/05/16 17:02:16;;;;;;;;;;;;;;;22.69;49.04;95318.56;5093146;28;1985;-48
2022/05/16 17:04:44;;;;;;;;;;;;;;;22.77;49.69;95312.78;5097916;28;1162;-49
2022/05/16 17:07:11;;;;;;;;;;;;;;;22.73;49.63;95322.50;5117498;28;1020;-49
2022/05/16 17:09:39;;;;;;;;;;;;;;;22.63;50.15;95313.22;5117748;28;1012;-49
2022/05/16 17:12:06;;;;;;;;;;;;;;;22.65;49.90;95314.66;5117445;28;969;-49
2022/05/16 17:14:33;;;;;;;;;;;;;;;22.53;49.89;95319.22;5117832;28;1027;-49
2022/05/16 17:17:00;;;;;;;;;;;;;;;22.28;49.21;95317.47;5117687;28;992;-48
2022/05/16 17:19:26;;;;;;;;;;;;;;;22.11;49.20;95321.88;5117765;28;1052;-49
2022/05/16 17:21:52;;;;;;;;;;;;;;;22.02;49.07;95327.63;5117471;28;1910;-49
2022/05/16 17:24:19;;;;;;;;;;;;;;;21.99;49.07;95319.09;5117342;28;968;-49
2022/05/16 17:26:45;;;;;;;;;;;;;;;21.95;48.70;95326.03;5117544;28;1019;-49
2022/05/16 17:29:12;;;;;;;;;;;;;;;21.86;50.57;95330.97;5117478;28;991;-49
2022/05/16 17:31:43;;;;;;;;;;;;;;;21.68;50.85;95323.63;5117429;28;1002;-49
2022/05/16 17:34:09;;;;;;;;;;;;;;;21.60;49.74;95332.91;5117458;28;972;-49
2022/05/16 17:36:36;;;;;;;;;;;;;;;21.48;49.15;95334.72;5117229;28;981;-48
2022/05/16 17:39:03;;;;;;;;;;;;;;;21.40;49.01;95341.25;5116936;28;1242;-49
2022/05/16 17:41:31;;;;;;;;;;;;;;;21.19;51.14;95342.50;5116877;28;1979;-49
2022/05/16 17:43:57;;;;;;;;;;;;;;;21.08;51.79;95342.38;5117173;28;957;-48
2022/05/16 17:46:23;;;;;;;;;;;;;;;20.89;53.31;95346.91;5117201;27;1058;-48
2022/05/16 17:48:49;;;;;;;;;;;;;;;20.76;52.38;95354.13;5117006;28;968;-48
2022/05/16 17:51:42;;;;;;;;;;;;;;;20.69;52.50;95350.63;5116902;28;1043;-48
2022/05/16 17:54:09;;;;;;;;;;;;;;;20.43;54.25;95365.16;5114560;28;1865;-48
2022/05/16 17:56:37;;;;;;;;;;;;;;;20.07;55.57;95367.44;5116768;28;1011;-48
2022/05/16 17:59:04;;;;;;;;;;;;;;;19.62;56.55;95361.09;5116835;28;1079;-51
2022/05/16 18:01:30;;;;;;;;;;;;;;;19.61;56.73;95365.66;5116962;28;1910;-50
2022/05/16 18:03:56;;;;;;;;;;;;;;;19.34;56.94;95366.75;5117037;28;1132;-50
2022/05/16 18:06:23;;;;;;;;;;;;;;;19.13;57.10;95370.53;5098250;28;1160;-50
2022/05/16 18:08:49;;;;;;;;;;;;;;;18.90;57.28;95383.44;5096011;28;1007;-50
2022/05/16 18:14:18;;;;;;;;;;;;;;;19.18;55.33;95384.28;5093630;28;1172;-50
2022/05/16 18:16:44;;;;;;;;;;;;;;;19.09;56.23;95392.63;5094295;28;1081;-49
2022/05/16 18:19:10;;;;;;;;;;;;;;;19.33;54.14;95397.63;5095769;28;1028;-50
2022/05/16 18:21:37;;;;;;;;;;;;;;;19.33;54.18;95403.88;5096009;28;1980;-50
2022/05/16 18:24:06;;;;;;;;;;;;;;;19.39;53.30;95408.47;5095753;28;965;-49
2022/05/16 18:26:32;;;;;;;;;;;;;;;19.28;54.01;95407.22;5095758;28;1008;-50
2022/05/16 18:28:58;;;;;;;;;;;;;;;19.19;53.91;95407.63;5095638;28;1075;-50
2022/05/16 18:31:24;;;;;;;;;;;;;;;19.09;53.54;95416.19;5095661;28;1048;-50
2022/05/16 18:33:51;;;;;;;;;;;;;;;19.15;51.94;95428.06;5095813;28;1852;-50
2022/05/16 18:36:17;;;;;;;;;;;;;;;19.21;51.18;95428.06;5095848;28;1035;-50
2022/05/16 18:38:43;;;;;;;;;;;;;;;19.29;50.33;95430.59;5095298;28;1077;-50
2022/05/16 18:41:10;;;;;;;;;;;;;;;19.21;50.95;95433.47;5095665;28;1910;-50
2022/05/16 18:51:50;;;;;;;;;;;;;;;18.73;51.66;95445.28;5095653;28;960;-50
2022/05/16 18:54:16;;;;;;;;;;;;;;;18.68;51.09;95449.63;5094943;28;1100;-49
2022/05/16 18:56:42;;;;;;;;;;;;;;;18.62;51.14;95453.16;5095122;28;900;-50
2022/05/16 18:59:09;;;;;;;;;;;;;;;18.63;50.82;95457.53;5095081;28;1120;-50
2022/05/16 19:01:38;;;;;;;;;;;;;;;18.67;49.98;95459.63;5095049;28;1971;-49
2022/05/16 19:04:05;;;;;;;;;;;;;;;18.71;49.71;95454.66;5095138;28;1099;-50
2022/05/16 19:06:31;;;;;;;;;;;;;;;18.72;49.55;95462.56;5114308;28;1228;-50
2022/05/16 19:08:57;;;;;;;;;;;;;;;18.56;50.56;95467.53;5115319;28;1066;-50
2022/05/16 19:11:29;;;;;;;;;;;;;;;18.50;50.49;95464.56;5115207;28;1102;-49
2022/05/16 19:13:55;;;;;;;;;;;;;;;18.34;49.92;95470.34;5115221;27;1075;-50
2022/05/16 19:16:21;;;;;;;;;;;;;;;18.14;50.66;95471.09;5115432;28;1032;-50
2022/05/16 19:18:47;;;;;;;;;;;;;;;18.02;51.07;95483.53;5115411;28;993;-50
2022/05/16 19:21:15;;;;;;;;;;;;;;;18.04;49.88;95470.63;5115222;28;1906;-50
2022/05/16 19:23:41;;;;;;;;;;;;;;;18.07;49.75;95486.44;5114585;28;1082;-49
2022/05/16 19:26:10;;;;;;;;;;;;;;;18.09;49.80;95483.53;5115436;28;1060;-50
2022/05/16 19:34:05;;;;;;;;;;;;;;;17.73;50.58;95487.25;5114952;28;1044;-50
2022/05/16 19:36:32;;;;;;;;;;;;;;;17.31;52.30;95487.13;5115017;28;1039;-50
2022/05/16 19:39:01;;;;;;;;;;;;;;;16.96;51.82;95495.13;5114585;28;1230;-50
2022/05/16 19:41:28;;;;;;;;;;;;;;;17.01;52.56;95493.72;5114947;28;1991;-50
2022/05/16 19:43:55;;;;;;;;;;;;;;;17.24;51.01;95488.09;5114860;27;957;-50
2022/05/16 19:46:21;;;;;;;;;;;;;;;17.47;50.16;95494.13;5115004;28;1024;-50
2022/05/16 19:48:47;;;;;;;;;;;;;;;17.05;55.22;95495.00;5114333;28;1020;-50
2022/05/16 19:51:14;;;;;;;;;;;;;;;16.61;57.17;95496.78;5114953;28;1071;-50
2022/05/16 19:53:40;;;;;;;;;;;;;;;16.52;56.77;95495.22;5114208;28;1042;-49
2022/05/16 19:56:07;;;;;;;;;;;;;;;16.39;58.13;95498.63;5114584;28;968;-49
2022/05/16 19:58:34;;;;;;;;;;;;;;;16.14;58.98;95498.94;5114676;28;1055;-50
2022/05/16 20:01:00;;;;;;;;;;;;;;;16.19;57.66;95503.75;5114501;28;1906;-50
2022/05/16 20:03:26;;;;;;;;;;;;;;;16.52;57.93;95508.72;5114135;28;1071;-50
2022/05/16 20:05:52;;;;;;;;;;;;;;;16.35;59.45;95508.09;5100445;28;1204;-50
2022/05/16 20:08:19;;;;;;;;;;;;;;;15.99;60.17;95514.25;5094164;28;1095;-50
2022/05/16 20:10:46;;;;;;;;;;;;;;;15.95;60.42;95508.41;5093938;28;1011;-50
2022/05/16 20:13:14;;;;;;;;;;;;;;;15.94;60.50;95514.81;5093949;28;968;-50
2022/05/16 20:15:40;;;;;;;;;;;;;;;15.94;60.80;95508.59;5093812;28;980;-50
2022/05/16 20:18:08;;;;;;;;;;;;;;;15.97;60.26;95510.91;5093859;28;1063;-50
2022/05/16 20:20:35;;;;;;;;;;;;;;;15.90;60.31;95512.69;5093335;28;1982;-50
2022/05/16 20:25:46;;;;;;;;;;;;;;;15.30;61.32;95509.84;5093162;28;1475;-50
2022/05/16 20:28:17;;;;;;;;;;;;;;;15.34;61.15;95515.72;5093679;28;1039;-50
2022/05/16 20:30:44;;;;;;;;;;;;;;;15.17;60.98;95512.31;5093245;28;1046;-50
2022/05/16 20:33:12;;;;;;;;;;;;;;;15.20;61.45;95510.09;5093719;28;1055;-50
2022/05/16 20:35:42;;;;;;;;;;;;;;;15.19;62.03;95512.97;5093185;28;1016;-50
2022/05/16 20:38:09;;;;;;;;;;;;;;;15.02;62.28;95517.66;5093279;28;1922;-50
2022/05/16 20:40:37;;;;;;;;;;;;;;;15.15;61.13;95514.34;5092564;28;1986;-50
2022/05/16 20:43:03;;;;;;;;;;;;;;;15.17;61.90;95515.84;5092248;28;1991;-50
2022/05/16 20:45:30;;;;;;;;;;;;;;;15.08;61.91;95511.56;5093315;28;1058;-50
2022/05/16 20:47:57;;;;;;;;;;;;;;;15.05;61.88;95514.59;5093492;28;972;-50
2022/05/16 20:50:24;;;;;;;;;;;;;;;15.03;62.70;95512.09;5093194;28;960;-50
2022/05/16 20:52:51;;;;;;;;;;;;;;;14.67;63.00;95521.78;5093426;28;964;-50
2022/05/16 20:55:20;;;;;;;;;;;;;;;14.63;63.33;95527.50;5093126;28;1234;-50
2022/05/16 20:57:46;;;;;;;;;;;;;;;14.55;62.75;95527.50;5093319;28;996;-50
2022/05/16 21:00:14;;;;;;;;;;;;;;;14.44;63.27;95526.06;5092968;28;1964;-50
2022/05/16 21:02:40;;;;;;;;;;;;;;;14.59;62.70;95528.88;5093148;28;1933;-50
2022/05/16 21:05:07;;;;;;;;;;;;;;;14.50;63.17;95534.44;5100197;28;1212;-51
2022/05/16 21:07:33;;;;;;;;;;;;;;;14.55;62.54;95526.66;5113439;28;992;-50
2022/05/16 21:09:59;;;;;;;;;;;;;;;14.67;61.46;95532.53;5113420;28;1062;-50
2022/05/16 21:12:26;;;;;;;;;;;;;;;14.71;61.33;95525.78;5113314;28;1940;-50
2022/05/16 21:14:52;;;;;;;;;;;;;;;14.61;62.23;95521.44;5113701;28;959;-50
2022/05/16 21:17:18;;;;;;;;;;;;;;;14.44;62.88;95522.53;5113322;28;1063;-50
2022/05/16 21:19:44;;;;;;;;;;;;;;;14.39;63.09;95528.41;5113283;28;1071;-50
2022/05/16 21:22:10;;;;;;;;;;;;;;;14.43;62.24;95529.75;5113323;28;1993;-50
2022/05/16 21:24:37;;;;;;;;;;;;;;;14.30;63.80;95523.25;5113164;28;969;-50
2022/05/16 21:27:04;;;;;;;;;;;;;;;14.23;62.81;95521.28;5113068;28;1024;-50
2022/05/16 21:29:30;;;;;;;;;;;;;;;14.20;62.97;95520.78;5113259;28;1055;-50
2022/05/16 21:31:56;;;;;;;;;;;;;;;14.23;62.49;95529.34;5113405;28;1033;-50
2022/05/16 21:34:23;;;;;;;;;;;;;;;14.24;62.38;95525.63;5113360;28;1067;-50
2022/05/16 21:36:49;;;;;;;;;;;;;;;14.17;63.93;95521.97;5113176;28;968;-50
2022/05/16 21:39:16;;;;;;;;;;;;;;;13.88;64.33;95524.44;5113187;28;1247;-50
2022/05/16 21:41:42;;;;;;;;;;;;;;;13.94;64.58;95523.72;5113083;28;1918;-50
2022/05/16 21:46:53;;;;;;;;;;;;;;;13.47;65.08;95520.81;5112974;28;901;-51
2022/05/16 21:49:21;;;;;;;;;;;;;;;13.51;63.73;95520.44;5113238;28;943;-50
2022/05/16 21:51:47;;;;;;;;;;;;;;;13.52;63.74;95519.47;5115739;28;1008;-50
2022/05/16 21:54:16;;;;;;;;;;;;;;;13.77;63.59;95521.09;5116634;28;1048;-50
2022/05/16 21:56:46;;;;;;;;;;;;;;;13.85;64.11;95523.75;5116880;28;952;-50
2022/05/16 21:59:13;;;;;;;;;;;;;;;13.65;64.80;95525.16;5116818;28;1412;-50
2022/05/16 22:01:40;;;;;;;;;;;;;;;13.29;65.78;95517.44;5116747;27;1994;-50
2022/05/16 22:04:06;;;;;;;;;;;;;;;13.36;66.04;95526.53;5116639;28;1059;-50
2022/05/16 22:06:32;;;;;;;;;;;;;;;13.44;66.43;95531.06;5096965;28;1219;-50
2022/05/16 22:08:58;;;;;;;;;;;;;;;13.43;66.49;95529.38;5096148;28;976;-50
2022/05/16 22:11:24;;;;;;;;;;;;;;;13.66;65.53;95527.66;5095908;28;1028;-50
2022/05/16 22:13:50;;;;;;;;;;;;;;;13.64;65.78;95534.22;5096473;28;979;-50
2022/05/16 22:16:16;;;;;;;;;;;;;;;13.47;66.17;95538.78;5096272;28;1003;-50
2022/05/16 22:18:58;;;;;;;;;;;;;;;13.28;65.80;95531.88;5095732;28;1083;-50
2022/05/16 22:21:25;;;;;;;;;;;;;;;13.04;65.72;95528.19;5095938;28;1910;-50
2022/05/16 22:23:52;;;;;;;;;;;;;;;12.76;65.66;95533.00;5096012;28;952;-50
2022/05/16 22:26:18;;;;;;;;;;;;;;;12.81;65.42;95537.91;5095848;28;1876;-50
2022/05/16 22:28:45;;;;;;;;;;;;;;;13.01;64.78;95533.91;5095634;28;1040;-50
2022/05/16 22:31:11;;;;;;;;;;;;;;;13.17;64.00;95534.91;5096135;28;1047;-50
2022/05/16 22:33:37;;;;;;;;;;;;;;;13.33;63.39;95534.91;5095444;28;1032;-50
2022/05/16 22:36:03;;;;;;;;;;;;;;;13.39;63.79;95536.94;5095650;28;1099;-50
2022/05/16 22:38:29;;;;;;;;;;;;;;;13.37;64.01;95530.88;5095360;28;1089;-50
2022/05/16 22:40:56;;;;;;;;;;;;;;;13.22;65.57;95536.09;5095847;28;1913;-50
2022/05/16 22:43:22;;;;;;;;;;;;;;;12.85;66.34;95536.56;5095600;28;1047;-50
2022/05/16 22:45:48;;;;;;;;;;;;;;;12.86;65.58;95535.53;5095785;28;953;-50
2022/05/16 22:48:15;;;;;;;;;;;;;;;12.79;65.46;95535.38;5095542;28;1226;-50
2022/05/16 22:50:41;;;;;;;;;;;;;;;12.59;65.93;95534.00;5095267;28;1084;-50
2022/05/16 22:53:07;;;;;;;;;;;;;;;12.59;64.58;95539.34;5095428;28;1039;-50
2022/05/16 22:55:33;;;;;;;;;;;;;;;12.54;65.00;95529.13;5095590;28;953;-50
2022/05/16 22:57:59;;;;;;;;;;;;;;;12.74;64.45;95528.81;5095066;28;1008;-50
2022/05/16 23:00:25;;;;;;;;;;;;;;;12.87;64.08;95534.53;5095303;28;1046;-50
2022/05/16 23:05:36;;;;;;;;;;;;;;;12.78;64.64;95528.31;5107052;28;1161;-50
2022/05/16 23:08:03;;;;;;;;;;;;;;;12.76;64.81;95522.28;5115603;28;1042;-50
2022/05/16 23:10:32;;;;;;;;;;;;;;;12.76;64.76;95527.63;5115616;27;1023;-50
2022/05/16 23:12:59;;;;;;;;;;;;;;;12.75;65.18;95525.13;5115362;28;965;-50
2022/05/16 23:15:25;;;;;;;;;;;;;;;12.74;65.20;95521.59;5115565;28;1031;-50
2022/05/16 23:17:51;;;;;;;;;;;;;;;12.86;64.86;95527.47;5114966;28;1079;-50
2022/05/16 23:20:18;;;;;;;;;;;;;;;12.72;65.63;95523.63;5115226;28;965;-50
2022/05/16 23:22:44;;;;;;;;;;;;;;;12.24;66.42;95525.19;5115102;28;1906;-50
2022/05/16 23:25:11;;;;;;;;;;;;;;;12.24;66.73;95522.50;5115298;28;1004;-50
2022/05/16 23:27:37;;;;;;;;;;;;;;;12.29;67.10;95512.97;5114845;27;1142;-49
2022/05/16 23:30:04;;;;;;;;;;;;;;;12.27;67.50;95509.63;5115321;27;964;-50
2022/05/16 23:32:30;;;;;;;;;;;;;;;12.06;67.83;95520.72;5114970;28;1016;-50
2022/05/16 23:34:56;;;;;;;;;;;;;;;12.03;68.91;95530.97;5113969;28;965;-50
2022/05/16 23:37:22;;;;;;;;;;;;;;;12.22;68.11;95530.69;5114848;28;1072;-50
2022/05/16 23:39:48;;;;;;;;;;;;;;;12.35;67.12;95515.97;5114885;28;995;-50
2022/05/16 23:42:15;;;;;;;;;;;;;;;12.29;66.98;95522.84;5115058;28;1917;-50
2022/05/16 23:44:41;;;;;;;;;;;;;;;12.22;67.76;95522.66;5114525;28;1034;-50
2022/05/16 23:47:07;;;;;;;;;;;;;;;12.30;66.94;95525.34;5115057;28;1055;-50
2022/05/16 23:49:34;;;;;;;;;;;;;;;12.26;67.20;95525.84;5114681;28;992;-50
2022/05/16 23:52:00;;;;;;;;;;;;;;;11.90;68.40;95528.72;5114893;28;1046;-50
2022/05/16 23:54:26;;;;;;;;;;;;;;;11.85;68.00;95529.16;5114124;28;1032;-50
2022/05/16 23:56:52;;;;;;;;;;;;;;;11.87;68.71;95534.34;5114599;28;988;-50
2022/05/16 23:59:18;;;;;;;;;;;;;;;11.94;67.58;95534.59;5114423;28;1043;-50
